sensor_id;sensor_type;location;lat;lon;timestamp;pressure;altitude;pressure_sealevel;temperature
42673;BMP280;28284;46.514;30.724;2023-10-13T00:00:55;101080.13;;;17.78
42673;BMP280;28284;46.514;30.724;2023-10-13T00:03:22;101078.97;;;17.75
42673;BMP280;28284;46.514;30.724;2023-10-13T00:05:47;101074.69;;;17.74
42673;BMP280;28284;46.514;30.724;2023-10-13T00:08:17;101071.53;;;17.76
42673;BMP280;28284;46.514;30.724;2023-10-13T00:10:42;101073.53;;;17.72
42673;BMP280;28284;46.514;30.724;2023-10-13T00:13:08;101068.03;;;17.75
42673;BMP280;28284;46.514;30.724;2023-10-13T00:15:47;101073.50;;;17.75
42673;BMP280;28284;46.514;30.724;2023-10-13T00:18:29;101059.38;;;17.77
42673;BMP280;28284;46.514;30.724;2023-10-13T00:20:59;101054.28;;;17.79
42673;BMP280;28284;46.514;30.724;2023-10-13T00:23:24;101050.81;;;17.75
42673;BMP280;28284;46.514;30.724;2023-10-13T00:25:52;101040.56;;;17.79
42673;BMP280;28284;46.514;30.724;2023-10-13T00:28:25;101049.97;;;17.78
42673;BMP280;28284;46.514;30.724;2023-10-13T00:30:51;101060.97;;;17.74
42673;BMP280;28284;46.514;30.724;2023-10-13T00:33:18;101057.78;;;17.79
42673;BMP280;28284;46.514;30.724;2023-10-13T00:35:49;101041.28;;;17.83
42673;BMP280;28284;46.514;30.724;2023-10-13T00:38:16;101042.09;;;17.83
42673;BMP280;28284;46.514;30.724;2023-10-13T00:40:44;101045.22;;;17.82
42673;BMP280;28284;46.514;30.724;2023-10-13T00:43:16;101058.91;;;17.82
42673;BMP280;28284;46.514;30.724;2023-10-13T00:45:48;101056.53;;;17.84
42673;BMP280;28284;46.514;30.724;2023-10-13T00:48:23;101070.19;;;17.87
42673;BMP280;28284;46.514;30.724;2023-10-13T00:51:00;101064.63;;;17.91
42673;BMP280;28284;46.514;30.724;2023-10-13T00:53:28;101063.13;;;17.90
42673;BMP280;28284;46.514;30.724;2023-10-13T00:55:54;101056.78;;;17.93
42673;BMP280;28284;46.514;30.724;2023-10-13T00:58:22;101047.00;;;17.92
42673;BMP280;28284;46.514;30.724;2023-10-13T01:00:49;101045.91;;;17.89
42673;BMP280;28284;46.514;30.724;2023-10-13T01:03:22;101035.72;;;17.90
42673;BMP280;28284;46.514;30.724;2023-10-13T01:05:51;101039.22;;;17.90
42673;BMP280;28284;46.514;30.724;2023-10-13T01:08:19;101028.25;;;17.90
42673;BMP280;28284;46.514;30.724;2023-10-13T01:10:48;101052.50;;;17.92
42673;BMP280;28284;46.514;30.724;2023-10-13T01:13:14;101051.38;;;17.89
42673;BMP280;28284;46.514;30.724;2023-10-13T01:15:42;101039.25;;;17.87
42673;BMP280;28284;46.514;30.724;2023-10-13T01:18:11;101051.06;;;17.84
42673;BMP280;28284;46.514;30.724;2023-10-13T01:20:38;101026.41;;;17.84
42673;BMP280;28284;46.514;30.724;2023-10-13T01:23:17;101031.03;;;17.87
42673;BMP280;28284;46.514;30.724;2023-10-13T01:25:49;101042.09;;;17.83
42673;BMP280;28284;46.514;30.724;2023-10-13T01:28:14;101038.19;;;17.81
42673;BMP280;28284;46.514;30.724;2023-10-13T01:30:42;101046.38;;;17.84
42673;BMP280;28284;46.514;30.724;2023-10-13T01:33:07;101042.13;;;17.80
42673;BMP280;28284;46.514;30.724;2023-10-13T01:35:34;101046.41;;;17.81
42673;BMP280;28284;46.514;30.724;2023-10-13T01:38:07;101049.13;;;17.81
42673;BMP280;28284;46.514;30.724;2023-10-13T01:40:32;101040.97;;;17.77
42673;BMP280;28284;46.514;30.724;2023-10-13T01:43:00;101044.88;;;17.76
42673;BMP280;28284;46.514;30.724;2023-10-13T01:45:25;101045.69;;;17.77
42673;BMP280;28284;46.514;30.724;2023-10-13T01:47:54;101035.63;;;17.70
42673;BMP280;28284;46.514;30.724;2023-10-13T01:50:19;101048.38;;;17.80
42673;BMP280;28284;46.514;30.724;2023-10-13T01:52:55;101049.91;;;17.81
42673;BMP280;28284;46.514;30.724;2023-10-13T01:55:43;101054.63;;;17.81
42673;BMP280;28284;46.514;30.724;2023-10-13T01:58:15;101048.41;;;17.77
42673;BMP280;28284;46.514;30.724;2023-10-13T02:00:42;101045.72;;;17.73
42673;BMP280;28284;46.514;30.724;2023-10-13T02:03:09;101054.31;;;17.75
42673;BMP280;28284;46.514;30.724;2023-10-13T02:05:41;101040.63;;;17.75
42673;BMP280;28284;46.514;30.724;2023-10-13T02:08:12;101046.91;;;17.72
42673;BMP280;28284;46.514;30.724;2023-10-13T02:10:43;101037.94;;;17.72
42673;BMP280;28284;46.514;30.724;2023-10-13T02:13:12;101036.78;;;17.69
42673;BMP280;28284;46.514;30.724;2023-10-13T02:15:40;101038.34;;;17.70
42673;BMP280;28284;46.514;30.724;2023-10-13T02:18:08;101043.06;;;17.70
42673;BMP280;28284;46.514;30.724;2023-10-13T02:20:34;101025.06;;;17.69
42673;BMP280;28284;46.514;30.724;2023-10-13T02:23:06;101026.25;;;17.68
42673;BMP280;28284;46.514;30.724;2023-10-13T02:25:35;101028.91;;;17.71
42673;BMP280;28284;46.514;30.724;2023-10-13T02:28:07;101027.81;;;17.69
42673;BMP280;28284;46.514;30.724;2023-10-13T02:30:42;101021.97;;;17.67
42673;BMP280;28284;46.514;30.724;2023-10-13T02:33:12;101037.59;;;17.70
42673;BMP280;28284;46.514;30.724;2023-10-13T02:35:38;101033.69;;;17.67
42673;BMP280;28284;46.514;30.724;2023-10-13T02:38:07;101037.63;;;17.66
42673;BMP280;28284;46.514;30.724;2023-10-13T02:40:36;101032.91;;;17.67
42673;BMP280;28284;46.514;30.724;2023-10-13T02:43:02;101035.31;;;17.65
42673;BMP280;28284;46.514;30.724;2023-10-13T02:45:29;101032.97;;;17.63
42673;BMP280;28284;46.514;30.724;2023-10-13T02:47:54;101031.00;;;17.64
42673;BMP280;28284;46.514;30.724;2023-10-13T02:50:35;101030.63;;;17.62
42673;BMP280;28284;46.514;30.724;2023-10-13T02:53:03;101031.41;;;17.62
42673;BMP280;28284;46.514;30.724;2023-10-13T02:55:30;101037.66;;;17.63
42673;BMP280;28284;46.514;30.724;2023-10-13T02:57:56;101042.34;;;17.66
42673;BMP280;28284;46.514;30.724;2023-10-13T03:00:22;101025.91;;;17.66
42673;BMP280;28284;46.514;30.724;2023-10-13T03:02:48;101030.63;;;17.62
42673;BMP280;28284;46.514;30.724;2023-10-13T03:05:23;101030.22;;;17.63
42673;BMP280;28284;46.514;30.724;2023-10-13T03:07:48;101039.22;;;17.64
42673;BMP280;28284;46.514;30.724;2023-10-13T03:10:15;101033.34;;;17.65
42673;BMP280;28284;46.514;30.724;2023-10-13T03:12:44;101045.09;;;17.66
42673;BMP280;28284;46.514;30.724;2023-10-13T03:15:14;101032.50;;;17.68
42673;BMP280;28284;46.514;30.724;2023-10-13T03:17:48;101032.56;;;17.65
42673;BMP280;28284;46.514;30.724;2023-10-13T03:20:16;101032.91;;;17.67
42673;BMP280;28284;46.514;30.724;2023-10-13T03:22:52;101023.53;;;17.68
42673;BMP280;28284;46.514;30.724;2023-10-13T03:25:17;101021.63;;;17.65
42673;BMP280;28284;46.514;30.724;2023-10-13T03:27:49;101023.19;;;17.66
42673;BMP280;28284;46.514;30.724;2023-10-13T03:30:14;101013.41;;;17.65
42673;BMP280;28284;46.514;30.724;2023-10-13T03:32:41;101021.66;;;17.61
42673;BMP280;28284;46.514;30.724;2023-10-13T03:35:12;101010.72;;;17.61
42673;BMP280;28284;46.514;30.724;2023-10-13T03:37:52;101015.81;;;17.59
42673;BMP280;28284;46.514;30.724;2023-10-13T03:40:18;101019.75;;;17.58
42673;BMP280;28284;46.514;30.724;2023-10-13T03:48:10;101002.50;;;17.58
42673;BMP280;28284;46.514;30.724;2023-10-13T03:50:52;101014.31;;;17.55
42673;BMP280;28284;46.514;30.724;2023-10-13T03:53:26;101010.81;;;17.54
42673;BMP280;28284;46.514;30.724;2023-10-13T03:55:52;101020.97;;;17.54
42673;BMP280;28284;46.514;30.724;2023-10-13T03:58:33;101015.09;;;17.55
42673;BMP280;28284;46.514;30.724;2023-10-13T04:00:59;101001.00;;;17.57
42673;BMP280;28284;46.514;30.724;2023-10-13T04:03:25;101006.47;;;17.57
42673;BMP280;28284;46.514;30.724;2023-10-13T04:05:58;101010.34;;;17.59
42673;BMP280;28284;46.514;30.724;2023-10-13T04:08:31;101008.69;;;17.65
42673;BMP280;28284;46.514;30.724;2023-10-13T04:11:08;100999.25;;;17.70
42673;BMP280;28284;46.514;30.724;2023-10-13T04:13:52;100997.69;;;17.69
42673;BMP280;28284;46.514;30.724;2023-10-13T04:16:36;101003.16;;;17.69
42673;BMP280;28284;46.514;30.724;2023-10-13T04:19:03;100997.69;;;17.69
42673;BMP280;28284;46.514;30.724;2023-10-13T04:21:28;100997.91;;;17.78
42673;BMP280;28284;46.514;30.724;2023-10-13T04:24:22;101013.53;;;17.81
42673;BMP280;28284;46.514;30.724;2023-10-13T04:27:13;101019.78;;;18.08
42673;BMP280;28284;46.514;30.724;2023-10-13T04:29:39;101022.44;;;18.34
42673;BMP280;28284;46.514;30.724;2023-10-13T04:32:26;101023.66;;;18.52
42673;BMP280;28284;46.514;30.724;2023-10-13T04:34:55;101014.59;;;18.55
42673;BMP280;28284;46.514;30.724;2023-10-13T04:37:23;101027.78;;;18.41
42673;BMP280;28284;46.514;30.724;2023-10-13T04:39:57;101029.88;;;18.33
42673;BMP280;28284;46.514;30.724;2023-10-13T04:42:34;101045.13;;;18.34
42673;BMP280;28284;46.514;30.724;2023-10-13T04:45:14;101049.38;;;18.39
42673;BMP280;28284;46.514;30.724;2023-10-13T04:47:58;101055.50;;;18.46
42673;BMP280;28284;46.514;30.724;2023-10-13T04:50:46;101066.38;;;18.53
42673;BMP280;28284;46.514;30.724;2023-10-13T04:53:14;101061.88;;;18.63
42673;BMP280;28284;46.514;30.724;2023-10-13T04:55:58;101087.19;;;18.70
42673;BMP280;28284;46.514;30.724;2023-10-13T04:58:27;101085.53;;;18.76
42673;BMP280;28284;46.514;30.724;2023-10-13T05:01:07;101094.81;;;18.82
42673;BMP280;28284;46.514;30.724;2023-10-13T05:04:02;101093.91;;;19.08
42673;BMP280;28284;46.514;30.724;2023-10-13T05:06:27;101097.91;;;19.42
42673;BMP280;28284;46.514;30.724;2023-10-13T05:09:14;101107.63;;;19.66
42673;BMP280;28284;46.514;30.724;2023-10-13T05:11:58;101121.47;;;19.59
42673;BMP280;28284;46.514;30.724;2023-10-13T05:14:42;101107.22;;;19.48
42673;BMP280;28284;46.514;30.724;2023-10-13T05:17:26;101105.88;;;19.36
42673;BMP280;28284;46.514;30.724;2023-10-13T05:20:10;101113.13;;;19.27
42673;BMP280;28284;46.514;30.724;2023-10-13T05:22:54;101113.38;;;19.17
42673;BMP280;28284;46.514;30.724;2023-10-13T05:25:38;101114.63;;;19.12
42673;BMP280;28284;46.514;30.724;2023-10-13T05:28:22;101110.31;;;19.11
42673;BMP280;28284;46.514;30.724;2023-10-13T05:31:08;101119.34;;;19.12
42673;BMP280;28284;46.514;30.724;2023-10-13T05:33:52;101123.28;;;19.11
42673;BMP280;28284;46.514;30.724;2023-10-13T05:36:36;101122.00;;;19.15
42673;BMP280;28284;46.514;30.724;2023-10-13T05:39:20;101132.09;;;19.22
42673;BMP280;28284;46.514;30.724;2023-10-13T05:42:05;101149.28;;;19.26
42673;BMP280;28284;46.514;30.724;2023-10-13T05:44:49;101145.63;;;19.32
42673;BMP280;28284;46.514;30.724;2023-10-13T05:47:33;101141.44;;;19.43
42673;BMP280;28284;46.514;30.724;2023-10-13T05:50:21;101158.34;;;19.61
42673;BMP280;28284;46.514;30.724;2023-10-13T05:52:46;101161.63;;;19.72
42673;BMP280;28284;46.514;30.724;2023-10-13T05:55:24;101166.25;;;19.75
42673;BMP280;28284;46.514;30.724;2023-10-13T05:58:08;101166.91;;;19.83
42673;BMP280;28284;46.514;30.724;2023-10-13T06:00:53;101166.75;;;19.90
42673;BMP280;28284;46.514;30.724;2023-10-13T06:03:37;101167.03;;;19.95
42673;BMP280;28284;46.514;30.724;2023-10-13T06:06:21;101180.31;;;19.97
42673;BMP280;28284;46.514;30.724;2023-10-13T06:09:05;101193.81;;;19.91
42673;BMP280;28284;46.514;30.724;2023-10-13T06:11:49;101187.09;;;19.92
42673;BMP280;28284;46.514;30.724;2023-10-13T06:14:33;101196.91;;;19.93
42673;BMP280;28284;46.514;30.724;2023-10-13T06:17:17;101188.09;;;20.01
42673;BMP280;28284;46.514;30.724;2023-10-13T06:20:01;101178.19;;;20.04
42673;BMP280;28284;46.514;30.724;2023-10-13T06:22:47;101180.44;;;20.09
42673;BMP280;28284;46.514;30.724;2023-10-13T06:25:31;101185.00;;;20.15
42673;BMP280;28284;46.514;30.724;2023-10-13T06:28:15;101183.22;;;20.25
42673;BMP280;28284;46.514;30.724;2023-10-13T06:30:59;101188.56;;;20.32
42673;BMP280;28284;46.514;30.724;2023-10-13T06:33:31;101188.69;;;20.41
42673;BMP280;28284;46.514;30.724;2023-10-13T06:35:59;101196.78;;;20.48
42673;BMP280;28284;46.514;30.724;2023-10-13T06:38:24;101202.13;;;20.55
42673;BMP280;28284;46.514;30.724;2023-10-13T06:40:50;101199.97;;;20.62
42673;BMP280;28284;46.514;30.724;2023-10-13T06:43:18;101205.38;;;20.65
42673;BMP280;28284;46.514;30.724;2023-10-13T06:45:47;101202.53;;;20.69
42673;BMP280;28284;46.514;30.724;2023-10-13T06:48:28;101200.84;;;20.75
42673;BMP280;28284;46.514;30.724;2023-10-13T06:50:58;101204.34;;;20.75
42673;BMP280;28284;46.514;30.724;2023-10-13T06:53:29;101202.59;;;20.81
42673;BMP280;28284;46.514;30.724;2023-10-13T06:55:54;101196.25;;;20.84
42673;BMP280;28284;46.514;30.724;2023-10-13T06:58:24;101200.00;;;20.90
42673;BMP280;28284;46.514;30.724;2023-10-13T07:00:49;101202.94;;;20.99
42673;BMP280;28284;46.514;30.724;2023-10-13T07:03:24;101207.38;;;21.09
42673;BMP280;28284;46.514;30.724;2023-10-13T07:05:50;101207.78;;;21.23
42673;BMP280;28284;46.514;30.724;2023-10-13T07:08:16;101207.81;;;21.36
42673;BMP280;28284;46.514;30.724;2023-10-13T07:10:51;101198.69;;;21.39
42673;BMP280;28284;46.514;30.724;2023-10-13T07:13:27;101198.13;;;21.44
42673;BMP280;28284;46.514;30.724;2023-10-13T07:15:53;101196.81;;;21.48
42673;BMP280;28284;46.514;30.724;2023-10-13T07:18:25;101189.53;;;21.42
42673;BMP280;28284;46.514;30.724;2023-10-13T07:20:54;101185.88;;;21.45
42673;BMP280;28284;46.514;30.724;2023-10-13T07:23:22;101197.72;;;21.58
42673;BMP280;28284;46.514;30.724;2023-10-13T07:25:56;101208.19;;;21.75
42673;BMP280;28284;46.514;30.724;2023-10-13T07:28:28;101215.50;;;21.94
42673;BMP280;28284;46.514;30.724;2023-10-13T07:30:53;101211.44;;;22.11
42673;BMP280;28284;46.514;30.724;2023-10-13T07:33:18;101220.81;;;22.26
42673;BMP280;28284;46.514;30.724;2023-10-13T07:35:49;101215.28;;;22.38
42673;BMP280;28284;46.514;30.724;2023-10-13T07:38:24;101223.22;;;22.48
42673;BMP280;28284;46.514;30.724;2023-10-13T07:40:49;101223.41;;;22.66
42673;BMP280;28284;46.514;30.724;2023-10-13T07:43:17;101206.63;;;22.82
42673;BMP280;28284;46.514;30.724;2023-10-13T07:45:46;101215.91;;;22.88
42673;BMP280;28284;46.514;30.724;2023-10-13T07:48:15;101224.09;;;22.92
42673;BMP280;28284;46.514;30.724;2023-10-13T07:50:47;101211.69;;;22.96
42673;BMP280;28284;46.514;30.724;2023-10-13T07:53:14;101218.50;;;23.04
42673;BMP280;28284;46.514;30.724;2023-10-13T07:55:48;101213.59;;;23.08
42673;BMP280;28284;46.514;30.724;2023-10-13T07:58:19;101225.94;;;23.16
42673;BMP280;28284;46.514;30.724;2023-10-13T08:00:44;101224.75;;;23.17
42673;BMP280;28284;46.514;30.724;2023-10-13T08:03:09;101224.63;;;23.20
42673;BMP280;28284;46.514;30.724;2023-10-13T08:05:35;101231.41;;;23.28
42673;BMP280;28284;46.514;30.724;2023-10-13T08:08:18;101227.03;;;23.40
42673;BMP280;28284;46.514;30.724;2023-10-13T08:10:44;101229.41;;;23.50
42673;BMP280;28284;46.514;30.724;2023-10-13T08:13:10;101229.47;;;23.59
42673;BMP280;28284;46.514;30.724;2023-10-13T08:15:41;101227.03;;;23.61
42673;BMP280;28284;46.514;30.724;2023-10-13T08:18:15;101222.91;;;23.65
42673;BMP280;28284;46.514;30.724;2023-10-13T08:20:58;101221.09;;;23.71
42673;BMP280;28284;46.514;30.724;2023-10-13T08:23:28;101224.59;;;23.72
42673;BMP280;28284;46.514;30.724;2023-10-13T08:26:09;101186.41;;;23.49
42673;BMP280;28284;46.514;30.724;2023-10-13T08:28:52;101237.00;;;23.89
42673;BMP280;28284;46.514;30.724;2023-10-13T08:31:21;101226.84;;;23.95
42673;BMP280;28284;46.514;30.724;2023-10-13T08:33:55;101218.41;;;23.98
42673;BMP280;28284;46.514;30.724;2023-10-13T08:36:32;101218.25;;;23.93
42673;BMP280;28284;46.514;30.724;2023-10-13T08:38:58;101234.22;;;23.89
42673;BMP280;28284;46.514;30.724;2023-10-13T08:41:41;101225.41;;;23.81
42673;BMP280;28284;46.514;30.724;2023-10-13T08:44:19;101227.63;;;23.56
42673;BMP280;28284;46.514;30.724;2023-10-13T08:46:57;101234.13;;;23.41
42673;BMP280;28284;46.514;30.724;2023-10-13T08:49:32;101233.03;;;23.38
42673;BMP280;28284;46.514;30.724;2023-10-13T08:52:04;101227.44;;;23.29
42673;BMP280;28284;46.514;30.724;2023-10-13T08:54:32;101225.53;;;23.17
42673;BMP280;28284;46.514;30.724;2023-10-13T08:57:04;101223.72;;;23.02
42673;BMP280;28284;46.514;30.724;2023-10-13T08:59:48;101228.97;;;22.88
42673;BMP280;28284;46.514;30.724;2023-10-13T09:02:20;101227.53;;;22.83
42673;BMP280;28284;46.514;30.724;2023-10-13T09:04:47;101228.31;;;22.84
42673;BMP280;28284;46.514;30.724;2023-10-13T09:07:13;101235.81;;;22.83
42673;BMP280;28284;46.514;30.724;2023-10-13T09:09:50;101241.44;;;22.92
42673;BMP280;28284;46.514;30.724;2023-10-13T09:12:20;101247.22;;;23.06
42673;BMP280;28284;46.514;30.724;2023-10-13T09:14:51;101244.22;;;23.13
42673;BMP280;28284;46.514;30.724;2023-10-13T09:17:23;101237.84;;;23.25
42673;BMP280;28284;46.514;30.724;2023-10-13T09:19:58;101241.59;;;23.31
42673;BMP280;28284;46.514;30.724;2023-10-13T09:22:27;101244.81;;;23.30
42673;BMP280;28284;46.514;30.724;2023-10-13T09:24:58;101228.88;;;23.34
42673;BMP280;28284;46.514;30.724;2023-10-13T09:27:24;101241.19;;;23.42
42673;BMP280;28284;46.514;30.724;2023-10-13T09:29:58;101241.09;;;23.45
42673;BMP280;28284;46.514;30.724;2023-10-13T09:32:46;101245.56;;;23.51
42673;BMP280;28284;46.514;30.724;2023-10-13T09:35:20;101249.47;;;23.63
42673;BMP280;28284;46.514;30.724;2023-10-13T09:37:48;101251.84;;;23.73
42673;BMP280;28284;46.514;30.724;2023-10-13T09:40:15;101257.97;;;23.77
42673;BMP280;28284;46.514;30.724;2023-10-13T09:42:51;101245.56;;;23.82
42673;BMP280;28284;46.514;30.724;2023-10-13T09:45:16;101242.34;;;23.83
42673;BMP280;28284;46.514;30.724;2023-10-13T09:47:43;101240.41;;;23.93
42673;BMP280;28284;46.514;30.724;2023-10-13T09:50:12;101241.69;;;24.09
42673;BMP280;28284;46.514;30.724;2023-10-13T09:52:49;101247.72;;;24.26
42673;BMP280;28284;46.514;30.724;2023-10-13T09:55:27;101252.06;;;24.36
42673;BMP280;28284;46.514;30.724;2023-10-13T09:58:03;101254.09;;;24.44
42673;BMP280;28284;46.514;30.724;2023-10-13T10:00:35;101247.34;;;24.54
42673;BMP280;28284;46.514;30.724;2023-10-13T10:03:20;101237.03;;;24.63
42673;BMP280;28284;46.514;30.724;2023-10-13T10:06:04;101234.31;;;24.72
42673;BMP280;28284;46.514;30.724;2023-10-13T10:08:31;101237.38;;;24.74
42673;BMP280;28284;46.514;30.724;2023-10-13T10:13:53;101234.88;;;24.94
42673;BMP280;28284;46.514;30.724;2023-10-13T10:16:28;101229.19;;;25.07
42673;BMP280;28284;46.514;30.724;2023-10-13T10:19:00;101223.63;;;25.07
42673;BMP280;28284;46.514;30.724;2023-10-13T10:21:36;101222.69;;;25.10
42673;BMP280;28284;46.514;30.724;2023-10-13T10:24:02;101230.44;;;25.06
42673;BMP280;28284;46.514;30.724;2023-10-13T10:26:33;101214.22;;;25.13
42673;BMP280;28284;46.514;30.724;2023-10-13T10:28:58;101224.53;;;25.13
42673;BMP280;28284;46.514;30.724;2023-10-13T10:31:32;101235.38;;;25.02
42673;BMP280;28284;46.514;30.724;2023-10-13T10:34:10;101227.22;;;24.89
42673;BMP280;28284;46.514;30.724;2023-10-13T10:36:37;101218.72;;;24.93
42673;BMP280;28284;46.514;30.724;2023-10-13T10:39:07;101209.47;;;24.78
42673;BMP280;28284;46.514;30.724;2023-10-13T10:41:34;101203.63;;;24.67
42673;BMP280;28284;46.514;30.724;2023-10-13T10:46:41;101205.31;;;24.47
42673;BMP280;28284;46.514;30.724;2023-10-13T10:49:08;101207.91;;;24.50
42673;BMP280;28284;46.514;30.724;2023-10-13T10:51:34;101206.72;;;24.60
42673;BMP280;28284;46.514;30.724;2023-10-13T10:54:17;101207.63;;;24.66
42673;BMP280;28284;46.514;30.724;2023-10-13T10:56:43;101200.41;;;24.77
42673;BMP280;28284;46.514;30.724;2023-10-13T10:59:08;101204.84;;;24.84
42673;BMP280;28284;46.514;30.724;2023-10-13T11:01:44;101200.88;;;24.94
42673;BMP280;28284;46.514;30.724;2023-10-13T11:04:14;101210.41;;;24.93
42673;BMP280;28284;46.514;30.724;2023-10-13T11:06:50;101204.88;;;24.93
42673;BMP280;28284;46.514;30.724;2023-10-13T11:09:38;101206.56;;;24.90
42673;BMP280;28284;46.514;30.724;2023-10-13T11:12:11;101201.66;;;24.85
42673;BMP280;28284;46.514;30.724;2023-10-13T11:17:26;101217.34;;;24.79
42673;BMP280;28284;46.514;30.724;2023-10-13T11:20:07;101216.41;;;24.73
42673;BMP280;28284;46.514;30.724;2023-10-13T11:22:40;101212.88;;;24.55
42673;BMP280;28284;46.514;30.724;2023-10-13T11:25:19;101220.84;;;24.53
42673;BMP280;28284;46.514;30.724;2023-10-13T11:27:47;101223.66;;;24.62
42673;BMP280;28284;46.514;30.724;2023-10-13T11:30:16;101217.81;;;24.69
42673;BMP280;28284;46.514;30.724;2023-10-13T11:32:45;101225.06;;;24.75
42673;BMP280;28284;46.514;30.724;2023-10-13T11:35:12;101225.66;;;24.88
42673;BMP280;28284;46.514;30.724;2023-10-13T11:37:54;101227.03;;;24.93
42673;BMP280;28284;46.514;30.724;2023-10-13T11:40:37;101227.34;;;24.95
42673;BMP280;28284;46.514;30.724;2023-10-13T11:43:12;101221.66;;;24.89
42673;BMP280;28284;46.514;30.724;2023-10-13T11:45:47;101210.72;;;24.86
42673;BMP280;28284;46.514;30.724;2023-10-13T11:48:31;101221.66;;;24.80
42673;BMP280;28284;46.514;30.724;2023-10-13T11:51:01;101214.13;;;24.72
42673;BMP280;28284;46.514;30.724;2023-10-13T11:53:32;101215.47;;;24.67
42673;BMP280;28284;46.514;30.724;2023-10-13T11:55:58;101221.03;;;24.67
42673;BMP280;28284;46.514;30.724;2023-10-13T11:58:23;101221.81;;;24.68
42673;BMP280;28284;46.514;30.724;2023-10-13T12:00:48;101215.03;;;24.69
42673;BMP280;28284;46.514;30.724;2023-10-13T12:03:18;101215.03;;;24.69
42673;BMP280;28284;46.514;30.724;2023-10-13T12:06:03;101216.56;;;24.61
42673;BMP280;28284;46.514;30.724;2023-10-13T12:08:44;101217.19;;;24.56
42673;BMP280;28284;46.514;30.724;2023-10-13T12:11:18;101215.16;;;24.57
42673;BMP280;28284;46.514;30.724;2023-10-13T12:13:55;101209.75;;;24.53
42673;BMP280;28284;46.514;30.724;2023-10-13T12:16:21;101209.00;;;24.53
42673;BMP280;28284;46.514;30.724;2023-10-13T12:18:47;101209.75;;;24.53
42673;BMP280;28284;46.514;30.724;2023-10-13T12:21:18;101203.47;;;24.53
42673;BMP280;28284;46.514;30.724;2023-10-13T12:23:46;101206.72;;;24.60
42673;BMP280;28284;46.514;30.724;2023-10-13T12:26:11;101217.81;;;24.69
42673;BMP280;28284;46.514;30.724;2023-10-13T12:28:44;101202.09;;;24.75
42673;BMP280;28284;46.514;30.724;2023-10-13T12:31:16;101208.84;;;24.83
42673;BMP280;28284;46.514;30.724;2023-10-13T12:33:42;101211.94;;;24.85
42673;BMP280;28284;46.514;30.724;2023-10-13T12:36:08;101211.00;;;24.88
42673;BMP280;28284;46.514;30.724;2023-10-13T12:38:34;101210.25;;;24.87
42673;BMP280;28284;46.514;30.724;2023-10-13T12:41:22;101205.66;;;24.84
42673;BMP280;28284;46.514;30.724;2023-10-13T12:44:06;101201.94;;;24.87
42673;BMP280;28284;46.514;30.724;2023-10-13T12:46:50;101202.41;;;24.95
42673;BMP280;28284;46.514;30.724;2023-10-13T12:49:35;101204.53;;;25.00
42673;BMP280;28284;46.514;30.724;2023-10-13T12:52:13;101203.63;;;25.03
42673;BMP280;28284;46.514;30.724;2023-10-13T12:54:58;101188.66;;;25.09
42673;BMP280;28284;46.514;30.724;2023-10-13T12:57:29;101201.31;;;25.19
42673;BMP280;28284;46.514;30.724;2023-10-13T12:59:55;101199.56;;;25.21
42673;BMP280;28284;46.514;30.724;2023-10-13T13:02:21;101206.63;;;25.22
42673;BMP280;28284;46.514;30.724;2023-10-13T13:04:46;101200.19;;;25.16
42673;BMP280;28284;46.514;30.724;2023-10-13T13:07:16;101202.53;;;25.09
42673;BMP280;28284;46.514;30.724;2023-10-13T13:09:41;101207.31;;;25.00
42673;BMP280;28284;46.514;30.724;2023-10-13T13:12:07;101206.41;;;24.94
42673;BMP280;28284;46.514;30.724;2023-10-13T13:14:32;101199.31;;;24.93
42673;BMP280;28284;46.514;30.724;2023-10-13T13:17:02;101201.00;;;24.90
42673;BMP280;28284;46.514;30.724;2023-10-13T13:19:34;101207.63;;;24.93
42673;BMP280;28284;46.514;30.724;2023-10-13T13:22:04;101206.72;;;24.96
42673;BMP280;28284;46.514;30.724;2023-10-13T13:24:30;101205.00;;;24.98
42673;BMP280;28284;46.514;30.724;2023-10-13T13:26:56;101204.88;;;25.02
42673;BMP280;28284;46.514;30.724;2023-10-13T13:29:22;101202.38;;;25.04
42673;BMP280;28284;46.514;30.724;2023-10-13T13:31:47;101201.44;;;25.07
42673;BMP280;28284;46.514;30.724;2023-10-13T13:34:12;101198.69;;;25.07
42673;BMP280;28284;46.514;30.724;2023-10-13T13:36:38;101202.72;;;25.06
42673;BMP280;28284;46.514;30.724;2023-10-13T13:39:03;101197.31;;;25.02
42673;BMP280;28284;46.514;30.724;2023-10-13T13:41:31;101203.31;;;25.01
42673;BMP280;28284;46.514;30.724;2023-10-13T13:43:59;101210.41;;;24.93
42673;BMP280;28284;46.514;30.724;2023-10-13T13:46:38;101202.56;;;24.56
42673;BMP280;28284;46.514;30.724;2023-10-13T13:49:06;101203.28;;;24.29
42673;BMP280;28284;46.514;30.724;2023-10-13T13:51:42;101197.50;;;23.97
42673;BMP280;28284;46.514;30.724;2023-10-13T13:54:08;101195.25;;;23.74
42673;BMP280;28284;46.514;30.724;2023-10-13T13:56:33;101205.94;;;23.54
42673;BMP280;28284;46.514;30.724;2023-10-13T13:59:03;101197.53;;;23.37
42673;BMP280;28284;46.514;30.724;2023-10-13T14:01:33;101199.16;;;23.25
42673;BMP280;28284;46.514;30.724;2023-10-13T14:04:02;101198.88;;;23.11
42673;BMP280;28284;46.514;30.724;2023-10-13T14:06:33;101201.28;;;23.00
42673;BMP280;28284;46.514;30.724;2023-10-13T14:09:00;101196.56;;;22.88
42673;BMP280;28284;46.514;30.724;2023-10-13T14:11:29;101204.00;;;22.79
42673;BMP280;28284;46.514;30.724;2023-10-13T14:14:03;101208.47;;;22.64
42673;BMP280;28284;46.514;30.724;2023-10-13T14:16:29;101212.94;;;22.49
42673;BMP280;28284;46.514;30.724;2023-10-13T14:18:54;101201.56;;;22.35
42673;BMP280;28284;46.514;30.724;2023-10-13T14:21:20;101209.00;;;22.25
42673;BMP280;28284;46.514;30.724;2023-10-13T14:23:49;101208.56;;;22.14
42673;BMP280;28284;46.514;30.724;2023-10-13T14:26:15;101210.09;;;22.03